createdAt,value
2022-11-08T00:01:31.444Z,6.10
2022-11-08T00:03:33.104Z,6.10
2022-11-08T00:05:53.509Z,6.10
2022-11-08T00:08:13.752Z,6.20
2022-11-08T00:10:34.318Z,6.00
2022-11-08T00:12:54.343Z,6.00
2022-11-08T00:14:56.206Z,6.00
2022-11-08T00:16:57.951Z,6.00
2022-11-08T00:18:59.531Z,6.00
2022-11-08T00:21:05.714Z,6.00
2022-11-08T00:23:07.315Z,6.00
2022-11-08T00:25:09.983Z,6.10
2022-11-08T00:27:12.801Z,6.00
2022-11-08T00:29:14.402Z,6.10
2022-11-08T00:31:16.043Z,6.00
2022-11-08T00:33:17.705Z,6.00
2022-11-08T00:35:19.294Z,6.00
2022-11-08T00:37:21.657Z,6.00
2022-11-08T00:39:23.304Z,6.10
2022-11-08T00:41:24.879Z,6.00
2022-11-08T00:43:26.527Z,6.00
2022-11-08T00:45:28.103Z,6.00
2022-11-08T00:47:29.684Z,6.00
2022-11-08T00:49:31.429Z,6.00
2022-11-08T00:51:33.152Z,6.00
2022-11-08T00:53:36.880Z,6.00
2022-11-08T00:55:38.458Z,5.90
2022-11-08T00:57:58.479Z,5.90
2022-11-08T01:00:00.943Z,5.90
2022-11-08T01:02:02.717Z,6.00
2022-11-08T01:04:04.724Z,5.90
2022-11-08T01:06:07.275Z,5.90
2022-11-08T01:08:10.130Z,5.90
2022-11-08T01:10:11.871Z,5.90
2022-11-08T01:12:13.443Z,5.90
2022-11-08T01:14:15.167Z,5.80
2022-11-08T01:16:23.993Z,5.80
2022-11-08T01:18:25.614Z,5.80
2022-11-08T01:20:27.318Z,5.80
2022-11-08T01:22:28.923Z,5.70
2022-11-08T01:24:30.554Z,5.70
2022-11-08T01:26:32.199Z,5.70
2022-11-08T01:28:34.056Z,5.70
2022-11-08T01:30:37.143Z,5.70
2022-11-08T01:32:38.747Z,5.80
2022-11-08T01:34:40.490Z,5.80
2022-11-08T01:36:42.083Z,5.70
2022-11-08T01:38:43.925Z,5.80
2022-11-08T01:40:46.247Z,5.70
2022-11-08T01:42:47.856Z,5.70
2022-11-08T01:44:58.868Z,5.70
2022-11-08T01:47:00.795Z,5.70
2022-11-08T01:49:05.261Z,5.80
2022-11-08T01:51:07.974Z,5.80
2022-11-08T01:53:09.814Z,5.80
2022-11-08T01:55:17.337Z,5.80
2022-11-08T01:57:25.068Z,5.80
2022-11-08T01:59:26.758Z,5.80
2022-11-08T02:01:28.499Z,5.80
2022-11-08T02:03:32.825Z,5.80
2022-11-08T02:05:34.643Z,5.80
2022-11-08T02:07:36.308Z,5.80
2022-11-08T02:09:38.931Z,5.80
2022-11-08T02:11:41.302Z,5.70
2022-11-08T02:13:43.060Z,5.70
2022-11-08T02:15:45.076Z,5.70
2022-11-08T02:17:46.734Z,5.70
2022-11-08T02:19:49.847Z,5.70
2022-11-08T02:22:02.783Z,5.70
2022-11-08T02:24:08.057Z,5.70
2022-11-08T02:26:09.662Z,5.60
2022-11-08T02:28:11.244Z,5.60
2022-11-08T02:30:13.200Z,5.60
2022-11-08T02:32:14.984Z,5.60
2022-11-08T02:34:16.754Z,5.60
2022-11-08T02:36:22.162Z,5.60
2022-11-08T02:38:25.062Z,5.60
2022-11-08T02:40:26.634Z,5.60
2022-11-08T02:42:28.436Z,5.50
2022-11-08T02:44:30.138Z,5.50
2022-11-08T02:46:31.730Z,5.50
2022-11-08T02:48:33.367Z,5.50
2022-11-08T02:50:35.198Z,5.40
2022-11-08T02:52:36.794Z,5.40
2022-11-08T02:54:38.744Z,5.40
2022-11-08T02:56:40.388Z,5.30
2022-11-08T02:58:41.987Z,5.30
2022-11-08T03:00:43.758Z,5.40
2022-11-08T03:02:45.416Z,5.30
2022-11-08T03:04:47.118Z,5.20
2022-11-08T03:06:48.703Z,5.20
2022-11-08T03:08:50.301Z,5.20
2022-11-08T03:10:51.907Z,5.20
2022-11-08T03:13:01.258Z,5.20
2022-11-08T03:15:03.292Z,5.10
2022-11-08T03:17:05.235Z,5.10
2022-11-08T03:19:06.812Z,5.00
2022-11-08T03:21:08.395Z,5.00
2022-11-08T03:23:10.089Z,5.00
2022-11-08T03:25:11.950Z,5.00
2022-11-08T03:27:15.219Z,5.00
2022-11-08T03:29:16.842Z,4.90
2022-11-08T03:31:18.406Z,4.90
2022-11-08T03:33:20.826Z,4.90
2022-11-08T03:35:22.437Z,4.80
2022-11-08T03:37:24.212Z,4.80
2022-11-08T03:39:25.851Z,4.80
2022-11-08T03:41:27.541Z,4.70
2022-11-08T03:43:29.141Z,4.70
2022-11-08T03:45:30.769Z,4.70
2022-11-08T03:47:36.771Z,4.70
2022-11-08T03:49:38.445Z,4.70
2022-11-08T03:51:40.087Z,4.70
2022-11-08T03:53:41.752Z,4.70
2022-11-08T03:55:43.583Z,4.60
2022-11-08T03:57:45.869Z,4.60
2022-11-08T03:59:47.543Z,4.60
2022-11-08T04:01:49.264Z,4.60
2022-11-08T04:03:51.094Z,4.60
2022-11-08T04:05:52.706Z,4.70
2022-11-08T04:07:54.374Z,4.60
2022-11-08T04:09:56.062Z,4.60
2022-11-08T04:12:16.422Z,4.50
2022-11-08T04:14:36.471Z,4.50
2022-11-08T04:16:38.166Z,4.50
2022-11-08T04:18:58.354Z,4.50
2022-11-08T04:21:19.082Z,4.50
2022-11-08T04:23:20.714Z,4.50
2022-11-08T04:25:22.468Z,4.50
2022-11-08T04:27:24.069Z,4.50
2022-11-08T04:29:25.700Z,4.40
2022-11-08T04:31:27.317Z,4.40
2022-11-08T04:33:29.006Z,4.40
2022-11-08T04:35:31.054Z,4.40
2022-11-08T04:37:32.651Z,4.40
2022-11-08T04:39:34.318Z,4.40
2022-11-08T04:41:35.970Z,4.40
2022-11-08T04:43:38.118Z,4.40
2022-11-08T04:45:40.799Z,4.40
2022-11-08T04:47:48.303Z,4.40
2022-11-08T04:49:50.192Z,4.40
2022-11-08T04:51:51.863Z,4.40
2022-11-08T04:53:54.778Z,4.30
2022-11-08T04:56:03.675Z,4.30
2022-11-08T04:58:05.323Z,4.30
2022-11-08T05:00:07.214Z,4.30
2022-11-08T05:02:09.031Z,4.30
2022-11-08T05:04:10.739Z,4.30
2022-11-08T05:06:13.572Z,4.30
2022-11-08T05:08:15.458Z,4.30
2022-11-08T05:10:17.516Z,4.30
2022-11-08T05:12:19.086Z,4.30
2022-11-08T05:14:20.677Z,4.30
2022-11-08T05:16:26.642Z,4.20
2022-11-08T05:18:29.004Z,4.20
2022-11-08T05:20:49.241Z,4.20
2022-11-08T05:23:09.427Z,4.20
2022-11-08T05:25:11.061Z,4.20
2022-11-08T05:27:12.724Z,4.20
2022-11-08T05:29:15.072Z,4.20
2022-11-08T05:31:16.943Z,4.10
2022-11-08T05:33:18.588Z,4.10
2022-11-08T05:35:21.755Z,4.10
2022-11-08T05:37:23.381Z,4.10
2022-11-08T05:39:28.281Z,4.10
2022-11-08T05:41:33.500Z,4.10
2022-11-08T05:43:35.168Z,4.10
2022-11-08T05:45:36.922Z,4.10
2022-11-08T05:47:38.516Z,4.10
2022-11-08T05:49:40.583Z,4.00
2022-11-08T05:51:42.247Z,4.10
2022-11-08T05:53:44.217Z,4.10
2022-11-08T05:55:46.249Z,4.00
2022-11-08T05:57:47.847Z,4.00
2022-11-08T05:59:49.555Z,4.00
2022-11-08T06:01:51.247Z,4.00
2022-11-08T06:03:53.133Z,4.00
2022-11-08T06:05:54.871Z,3.90
2022-11-08T06:07:56.484Z,4.00
2022-11-08T06:09:58.072Z,3.90
2022-11-08T06:11:59.683Z,3.90
2022-11-08T06:14:01.374Z,3.90
2022-11-08T06:16:04.525Z,3.90
2022-11-08T06:18:06.188Z,3.90
2022-11-08T06:20:09.117Z,3.90
2022-11-08T06:22:10.779Z,3.90
2022-11-08T06:24:12.414Z,3.90
2022-11-08T06:26:14.377Z,3.90
2022-11-08T06:28:16.078Z,3.90
2022-11-08T06:30:17.825Z,3.90
2022-11-08T06:32:19.575Z,3.90
2022-11-08T06:34:21.735Z,3.90
2022-11-08T06:36:23.611Z,3.90
2022-11-08T06:38:25.306Z,3.90
2022-11-08T06:40:27.647Z,4.00
2022-11-08T06:42:29.267Z,3.90
2022-11-08T06:44:30.898Z,3.90
2022-11-08T06:46:32.526Z,4.00
2022-11-08T06:48:36.094Z,3.90
2022-11-08T06:50:37.897Z,4.00
2022-11-08T06:52:40.821Z,4.10
2022-11-08T06:54:42.459Z,4.10
2022-11-08T06:56:44.360Z,4.10
2022-11-08T06:58:45.996Z,4.20
2022-11-08T07:00:47.580Z,4.20
2022-11-08T07:02:53.338Z,4.20
2022-11-08T07:04:55.067Z,4.30
2022-11-08T07:06:56.903Z,4.30
2022-11-08T07:08:58.597Z,4.40
2022-11-08T07:11:00.201Z,4.40
2022-11-08T07:13:05.955Z,4.50
2022-11-08T07:15:07.788Z,4.60
2022-11-08T07:17:09.394Z,4.60
2022-11-08T07:19:11.037Z,4.70
2022-11-08T07:21:12.643Z,4.80
2022-11-08T07:23:14.338Z,4.80
2022-11-08T07:25:16.048Z,5.00
2022-11-08T07:27:17.676Z,5.00
2022-11-08T07:29:19.311Z,5.10
2022-11-08T07:31:21.599Z,5.20
2022-11-08T07:33:23.356Z,5.20
2022-11-08T07:35:25.742Z,5.30
2022-11-08T07:37:29.209Z,5.30
2022-11-08T07:39:30.897Z,5.40
2022-11-08T07:41:32.617Z,5.50
2022-11-08T07:43:34.242Z,5.50
2022-11-08T07:45:35.879Z,5.60
2022-11-08T07:47:37.866Z,5.60
2022-11-08T07:49:39.512Z,5.70
2022-11-08T07:51:41.116Z,5.80
2022-11-08T07:53:43.375Z,5.90
2022-11-08T07:55:46.237Z,6.00
2022-11-08T07:57:47.923Z,6.00
2022-11-08T07:59:49.536Z,6.10
2022-11-08T08:01:51.218Z,6.20
2022-11-08T08:03:52.850Z,6.20
2022-11-08T08:05:58.206Z,6.40
2022-11-08T08:08:02.515Z,6.40
2022-11-08T08:10:04.480Z,6.60
2022-11-08T08:12:06.543Z,6.60
2022-11-08T08:14:08.132Z,6.70
2022-11-08T08:16:09.825Z,6.80
2022-11-08T08:18:11.453Z,6.90
2022-11-08T08:20:13.222Z,7.00
2022-11-08T08:22:14.880Z,7.10
2022-11-08T08:24:16.560Z,7.20
2022-11-08T08:26:18.138Z,7.30
2022-11-08T08:28:19.793Z,7.40
2022-11-08T08:30:22.295Z,7.40
2022-11-08T08:32:26.260Z,7.60
2022-11-08T08:34:29.862Z,7.60
2022-11-08T08:36:31.463Z,7.70
2022-11-08T08:38:33.995Z,7.80
2022-11-08T08:40:35.647Z,7.90
2022-11-08T08:42:37.289Z,8.00
2022-11-08T08:44:38.900Z,8.10
2022-11-08T08:46:40.495Z,8.20
2022-11-08T08:48:42.274Z,8.30
2022-11-08T08:50:43.951Z,8.40
2022-11-08T08:52:45.561Z,8.50
2022-11-08T08:54:47.204Z,8.60
2022-11-08T08:56:49.057Z,8.80
2022-11-08T09:03:34.777Z,9.10
2022-11-08T09:05:36.652Z,9.20
2022-11-08T09:07:38.408Z,9.30
2022-11-08T09:09:40.110Z,9.40
2022-11-08T09:11:41.777Z,9.50
2022-11-08T09:13:43.428Z,9.50
2022-11-08T09:15:45.069Z,9.60
2022-11-08T09:17:46.671Z,9.70
2022-11-08T09:19:51.881Z,9.80
2022-11-08T09:21:56.191Z,9.90
2022-11-08T09:23:58.053Z,10.00
2022-11-08T09:26:00.373Z,10.00
2022-11-08T09:28:03.155Z,10.10
2022-11-08T09:30:05.928Z,10.20
2022-11-08T09:32:07.573Z,10.20
2022-11-08T09:34:09.315Z,10.30
2022-11-08T09:36:12.689Z,10.30
2022-11-08T09:38:14.565Z,10.30
2022-11-08T09:40:21.798Z,10.40
2022-11-08T09:42:52.703Z,10.50
2022-11-08T09:44:54.270Z,10.60
2022-11-08T09:46:57.398Z,10.70
2022-11-08T09:49:00.479Z,10.80
2022-11-08T09:51:06.989Z,10.90
2022-11-08T09:53:35.160Z,11.00
2022-11-08T09:55:42.094Z,11.20
2022-11-08T09:57:55.324Z,11.30
2022-11-08T10:00:00.056Z,11.30
2022-11-08T10:02:01.850Z,11.60
2022-11-08T10:04:06.335Z,11.70
2022-11-08T10:06:34.574Z,11.80
2022-11-08T10:08:43.608Z,12.00
2022-11-08T10:11:04.447Z,12.10
2022-11-08T10:13:15.166Z,12.30
2022-11-08T10:15:16.909Z,12.40
2022-11-08T10:17:21.618Z,12.50
2022-11-08T10:19:35.336Z,12.60
2022-11-08T10:21:58.154Z,12.70
2022-11-08T10:24:03.996Z,12.80
2022-11-08T10:26:09.315Z,12.80
2022-11-08T10:28:15.590Z,12.90
2022-11-08T10:30:19.031Z,13.00
2022-11-08T10:32:21.956Z,13.00
2022-11-08T10:34:28.558Z,13.00
2022-11-08T10:36:30.197Z,13.10
2022-11-08T10:38:39.594Z,13.10
2022-11-08T10:40:45.535Z,13.20
2022-11-08T10:42:51.482Z,13.20
2022-11-08T10:44:53.784Z,13.20
2022-11-08T10:47:11.252Z,13.30
2022-11-08T10:49:18.775Z,13.30
2022-11-08T10:51:20.415Z,13.30
2022-11-08T10:53:24.243Z,13.30
2022-11-08T10:55:36.727Z,13.30
2022-11-08T10:57:39.558Z,13.30
2022-11-08T10:59:41.778Z,13.40
2022-11-08T11:01:49.998Z,13.40
2022-11-08T11:03:52.459Z,13.40
2022-11-08T11:06:07.298Z,13.40
2022-11-08T11:08:08.917Z,13.40
2022-11-08T11:10:24.785Z,13.40
2022-11-08T11:12:26.405Z,13.50
2022-11-08T11:14:28.221Z,13.50
2022-11-08T11:16:29.844Z,13.60
2022-11-08T11:18:31.535Z,13.60
2022-11-08T11:20:33.324Z,13.60
2022-11-08T11:22:35.598Z,13.80
2022-11-08T11:24:46.168Z,13.70
2022-11-08T11:26:57.069Z,13.80
2022-11-08T11:29:04.557Z,13.80
2022-11-08T11:31:15.716Z,13.80
2022-11-08T11:33:25.156Z,13.90
2022-11-08T11:35:31.242Z,13.90
2022-11-08T11:37:48.568Z,13.90
2022-11-08T11:39:50.169Z,13.90
2022-11-08T11:41:56.531Z,14.00
2022-11-08T11:44:03.608Z,14.00
2022-11-08T11:46:17.240Z,14.00
2022-11-08T11:48:27.713Z,14.00
2022-11-08T11:50:32.460Z,14.00
2022-11-08T11:52:34.290Z,14.10
2022-11-08T11:54:35.912Z,14.10
2022-11-08T11:56:41.359Z,14.20
2022-11-08T11:58:44.085Z,14.20
2022-11-08T12:00:51.054Z,14.30
2022-11-08T12:03:11.419Z,14.30
2022-11-08T12:05:31.847Z,14.30
2022-11-08T12:07:35.116Z,14.40
2022-11-08T12:09:50.805Z,14.40
2022-11-08T12:11:55.488Z,14.40
2022-11-08T12:13:57.147Z,14.40
2022-11-08T12:16:06.647Z,14.50
2022-11-08T12:18:08.327Z,14.50
2022-11-08T12:20:26.605Z,14.60
2022-11-08T12:22:40.342Z,14.60
2022-11-08T12:24:56.992Z,14.60
2022-11-08T12:27:07.761Z,14.70
2022-11-08T12:29:12.519Z,14.70
2022-11-08T12:31:25.825Z,14.70
2022-11-08T12:33:45.814Z,14.70
2022-11-08T12:36:52.397Z,14.70
2022-11-08T12:39:23.186Z,14.80
2022-11-08T12:41:40.535Z,14.80
2022-11-08T12:44:00.260Z,14.90
2022-11-08T12:46:07.487Z,14.90
2022-11-08T12:48:27.702Z,14.90
2022-11-08T12:50:36.059Z,15.00
2022-11-08T12:54:41.067Z,15.10
2022-11-08T12:56:48.409Z,15.10
2022-11-08T12:58:52.570Z,15.20
2022-11-08T13:00:59.103Z,15.30
2022-11-08T13:03:23.916Z,15.30
2022-11-08T13:05:37.559Z,15.40
2022-11-08T13:07:52.970Z,15.40
2022-11-08T13:10:01.309Z,15.50
2022-11-08T13:12:03.181Z,15.50
2022-11-08T13:14:05.116Z,15.50
2022-11-08T13:16:21.419Z,15.50
2022-11-08T13:18:24.371Z,15.50
2022-11-08T13:20:38.276Z,15.50
2022-11-08T13:22:44.249Z,15.50
2022-11-08T13:24:46.019Z,15.50
2022-11-08T13:26:47.838Z,15.40
2022-11-08T13:28:50.852Z,15.50
2022-11-08T13:31:02.022Z,15.50
2022-11-08T13:33:26.699Z,15.50
2022-11-08T13:35:33.780Z,15.50
2022-11-08T13:37:43.920Z,15.40
2022-11-08T13:40:09.927Z,15.50
2022-11-08T13:42:18.275Z,15.50
2022-11-08T13:44:55.044Z,15.50
2022-11-08T13:46:56.782Z,15.50
2022-11-08T13:48:58.739Z,15.50
2022-11-08T13:51:23.596Z,15.50
2022-11-08T13:53:44.261Z,15.60
2022-11-08T13:55:53.404Z,15.60
2022-11-08T13:57:58.380Z,15.60
2022-11-08T14:00:00.267Z,15.60
2022-11-08T14:02:05.456Z,15.60
2022-11-08T14:04:33.538Z,15.70
2022-11-08T14:06:35.298Z,15.70
2022-11-08T14:08:59.594Z,15.70
2022-11-08T14:11:22.164Z,15.70
2022-11-08T14:13:38.049Z,15.60
2022-11-08T14:15:57.595Z,15.60
2022-11-08T14:18:07.199Z,15.60
2022-11-08T14:20:33.037Z,15.60
2022-11-08T14:22:34.877Z,15.60
2022-11-08T14:24:38.338Z,15.60
2022-11-08T14:26:46.152Z,15.60
2022-11-08T14:28:49.343Z,15.60
2022-11-08T14:30:51.378Z,15.50
2022-11-08T14:33:16.808Z,15.50
2022-11-08T14:35:26.138Z,15.50
2022-11-08T14:37:28.382Z,15.40
2022-11-08T14:39:36.264Z,15.40
2022-11-08T14:41:38.917Z,15.40
2022-11-08T14:43:45.717Z,15.30
2022-11-08T14:45:47.947Z,15.30
2022-11-08T14:47:59.040Z,15.30
2022-11-08T14:50:00.879Z,15.20
2022-11-08T14:52:15.569Z,15.20
2022-11-08T14:54:26.160Z,15.10
2022-11-08T14:56:38.320Z,15.10
2022-11-08T14:58:40.081Z,15.00
2022-11-08T15:00:44.097Z,14.90
2022-11-08T15:02:50.159Z,14.90
2022-11-08T15:04:52.355Z,14.80
2022-11-08T15:06:57.567Z,14.70
2022-11-08T15:09:00.500Z,14.60
2022-11-08T15:11:10.929Z,14.60
2022-11-08T15:13:12.764Z,14.50
2022-11-08T15:15:24.455Z,14.50
2022-11-08T15:17:44.773Z,14.40
2022-11-08T15:19:46.642Z,14.30
2022-11-08T15:21:51.702Z,14.20
2022-11-08T15:23:54.861Z,14.00
2022-11-08T15:25:59.058Z,13.90
2022-11-08T15:28:21.561Z,14.00
2022-11-08T15:30:41.759Z,13.70
2022-11-08T15:32:43.796Z,13.60
2022-11-08T15:34:46.214Z,13.40
2022-11-08T15:36:49.596Z,13.30
2022-11-08T15:38:51.468Z,13.30
2022-11-08T15:40:55.541Z,13.20
2022-11-08T15:42:58.315Z,13.10
2022-11-08T15:45:00.130Z,13.00
2022-11-08T15:47:01.846Z,12.90
2022-11-08T15:49:24.285Z,12.80
2022-11-08T15:51:26.338Z,12.70
2022-11-08T15:53:28.728Z,12.60
2022-11-08T15:55:39.471Z,12.50
2022-11-08T15:57:42.926Z,12.40
2022-11-08T15:59:44.679Z,12.40
2022-11-08T16:02:01.608Z,12.30
2022-11-08T16:04:03.580Z,12.20
2022-11-08T16:06:06.206Z,12.10
2022-11-08T16:08:07.929Z,12.00
2022-11-08T16:10:10.710Z,11.90
2022-11-08T16:12:14.842Z,11.80
2022-11-08T16:14:20.067Z,11.80
2022-11-08T16:16:21.796Z,11.60
2022-11-08T16:18:23.761Z,11.50
2022-11-08T16:20:30.889Z,11.50
2022-11-08T16:22:32.604Z,11.40
2022-11-08T16:24:34.343Z,11.30
2022-11-08T16:26:36.214Z,11.20
2022-11-08T16:28:38.882Z,11.10
2022-11-08T16:30:46.076Z,11.10
2022-11-08T16:32:48.306Z,11.00
2022-11-08T16:34:50.016Z,10.90
2022-11-08T16:36:52.115Z,10.80
2022-11-08T16:38:56.392Z,10.70
2022-11-08T16:40:58.196Z,10.70
2022-11-08T16:42:59.872Z,10.60
2022-11-08T16:45:01.562Z,10.50
2022-11-08T16:47:03.519Z,10.50
2022-11-08T16:49:07.068Z,10.40
2022-11-08T16:51:18.818Z,10.40
2022-11-08T16:53:21.680Z,10.30
2022-11-08T16:55:23.773Z,10.20
2022-11-08T16:57:34.537Z,10.20
2022-11-08T16:59:36.865Z,10.10
2022-11-08T17:01:39.879Z,10.10
2022-11-08T17:03:41.678Z,10.00
2022-11-08T17:05:43.448Z,10.00
2022-11-08T17:07:45.308Z,9.90
2022-11-08T17:09:47.278Z,9.90
2022-11-08T17:11:48.961Z,9.80
2022-11-08T17:13:52.754Z,9.80
2022-11-08T17:15:55.144Z,9.80
2022-11-08T17:17:58.644Z,9.80
2022-11-08T17:20:00.373Z,9.80
2022-11-08T17:22:02.063Z,9.70
2022-11-08T17:24:03.959Z,9.70
2022-11-08T17:26:07.085Z,9.60
2022-11-08T17:28:09.987Z,9.60
2022-11-08T17:30:13.670Z,9.60
2022-11-08T17:32:15.515Z,9.60
2022-11-08T17:34:17.294Z,9.50
2022-11-08T17:36:18.970Z,9.50
2022-11-08T17:38:20.692Z,9.50
2022-11-08T17:40:22.407Z,9.50
2022-11-08T17:42:24.324Z,9.50
2022-11-08T17:44:26.289Z,9.40
2022-11-08T17:46:27.965Z,9.40
2022-11-08T17:48:31.052Z,9.40
2022-11-08T17:50:32.774Z,9.40
2022-11-08T17:52:34.535Z,9.40
2022-11-08T17:54:36.238Z,9.40
2022-11-08T17:56:37.973Z,9.40
2022-11-08T17:58:41.058Z,9.40
2022-11-08T18:00:43.601Z,9.40
2022-11-08T18:02:45.810Z,9.40
2022-11-08T18:04:47.539Z,9.40
2022-11-08T18:06:49.650Z,9.40
2022-11-08T18:08:51.485Z,9.40
2022-11-08T18:10:53.238Z,9.60
2022-11-08T18:12:54.932Z,9.40
2022-11-08T18:14:56.631Z,9.40
2022-11-08T18:16:59.711Z,9.50
2022-11-08T18:19:01.586Z,9.50
2022-11-08T18:21:04.533Z,9.50
2022-11-08T18:23:06.282Z,9.50
2022-11-08T18:25:08.458Z,9.60
2022-11-08T18:27:10.396Z,9.60
2022-11-08T18:29:12.152Z,9.60
2022-11-08T18:31:18.891Z,9.60
2022-11-08T18:33:21.802Z,9.60
2022-11-08T18:35:23.870Z,9.60
2022-11-08T18:37:25.734Z,9.70
2022-11-08T18:39:27.483Z,9.70
2022-11-08T18:41:31.811Z,9.70
2022-11-08T18:43:34.411Z,9.70
2022-11-08T18:45:36.132Z,9.70
2022-11-08T18:47:37.925Z,9.70
2022-11-08T18:49:39.673Z,9.70
2022-11-08T18:51:41.438Z,9.70
2022-11-08T18:53:43.894Z,9.80
2022-11-08T18:55:45.698Z,9.80
2022-11-08T18:57:47.428Z,9.80
2022-11-08T18:59:49.127Z,9.80
2022-11-08T19:01:50.905Z,9.80
2022-11-08T19:03:52.720Z,9.80
2022-11-08T19:05:55.193Z,9.80
2022-11-08T19:07:56.956Z,9.80
2022-11-08T19:09:58.763Z,9.80
2022-11-08T19:12:05.511Z,9.80
2022-11-08T19:14:07.701Z,9.70
2022-11-08T19:16:13.713Z,9.70
2022-11-08T19:18:15.606Z,9.80
2022-11-08T19:20:17.365Z,9.80
2022-11-08T19:22:19.115Z,9.80
2022-11-08T19:24:20.890Z,9.80
2022-11-08T19:26:25.500Z,9.80
2022-11-08T19:28:32.686Z,9.80
2022-11-08T19:30:34.800Z,9.80
2022-11-08T19:32:36.575Z,9.80
2022-11-08T19:34:38.385Z,9.80
2022-11-08T19:36:49.028Z,9.80
2022-11-08T19:38:54.934Z,9.80
2022-11-08T19:41:00.225Z,9.80
2022-11-08T19:43:03.064Z,9.80
2022-11-08T19:45:05.415Z,9.80
2022-11-08T19:47:07.154Z,9.80
2022-11-08T19:49:10.121Z,9.80
2022-11-08T19:51:14.843Z,9.80
2022-11-08T19:53:16.587Z,9.80
2022-11-08T19:55:18.309Z,9.80
2022-11-08T19:57:20.062Z,9.80
2022-11-08T19:59:21.915Z,9.80
2022-11-08T20:01:29.768Z,9.80
2022-11-08T20:03:32.170Z,9.80
2022-11-08T20:05:33.863Z,9.80
2022-11-08T20:07:35.677Z,9.70
2022-11-08T20:09:37.384Z,9.70
2022-11-08T20:11:41.718Z,9.70
2022-11-08T20:13:43.851Z,9.70
2022-11-08T20:15:45.597Z,9.70
2022-11-08T20:17:47.364Z,9.70
2022-11-08T20:19:50.576Z,9.70
2022-11-08T20:21:56.683Z,9.70
2022-11-08T20:23:58.442Z,9.60
2022-11-08T20:26:04.943Z,9.60
2022-11-08T20:28:07.048Z,9.70
2022-11-08T20:30:09.419Z,9.60
2022-11-08T20:32:11.439Z,9.60
2022-11-08T20:34:13.398Z,9.60
2022-11-08T20:36:18.381Z,9.60
2022-11-08T20:38:20.457Z,9.60
2022-11-08T20:40:22.402Z,9.50
2022-11-08T20:42:24.182Z,9.50
2022-11-08T20:44:25.931Z,9.50
2022-11-08T20:46:27.864Z,9.50
2022-11-08T20:48:29.851Z,9.50
2022-11-08T20:50:31.656Z,9.50
2022-11-08T20:52:33.394Z,9.50
2022-11-08T20:54:37.780Z,9.50
2022-11-08T20:56:41.634Z,9.50
2022-11-08T20:58:44.610Z,9.40
2022-11-08T21:00:57.961Z,9.40
2022-11-08T21:03:00.224Z,9.40
2022-11-08T21:05:01.953Z,9.40
2022-11-08T21:09:37.486Z,9.30
2022-11-08T21:11:47.406Z,9.30
2022-11-08T21:13:49.468Z,9.30
2022-11-08T21:15:52.050Z,9.30
2022-11-08T21:17:53.782Z,9.30
2022-11-08T21:19:55.643Z,9.20
2022-11-08T21:22:14.994Z,9.20
2022-11-08T21:24:17.241Z,9.20
2022-11-08T21:26:19.469Z,9.20
2022-11-08T21:28:21.404Z,9.10
2022-11-08T21:30:23.178Z,9.10
2022-11-08T21:32:24.891Z,9.00
2022-11-08T21:34:32.023Z,9.00
2022-11-08T21:36:34.123Z,8.90
2022-11-08T21:38:40.066Z,8.90
2022-11-08T21:40:41.765Z,8.90
2022-11-08T21:42:48.425Z,8.80
2022-11-08T21:44:50.565Z,8.80
2022-11-08T21:46:52.309Z,8.80
2022-11-08T21:48:59.108Z,8.70
2022-11-08T21:51:04.183Z,8.70
2022-11-08T21:53:07.645Z,8.60
2022-11-08T21:55:09.681Z,8.60
2022-11-08T21:57:11.392Z,8.50
2022-11-08T21:59:13.298Z,8.50
2022-11-08T22:01:15.228Z,8.40
2022-11-08T22:03:17.120Z,8.40
2022-11-08T22:05:19.004Z,8.30
2022-11-08T22:07:20.839Z,8.30
2022-11-08T22:09:22.623Z,8.20
2022-11-08T22:11:24.347Z,8.20
2022-11-08T22:13:26.049Z,8.10
2022-11-08T22:15:27.936Z,8.10
2022-11-08T22:17:29.666Z,8.10
2022-11-08T22:19:31.580Z,8.00
2022-11-08T22:21:41.230Z,8.00
2022-11-08T22:23:43.268Z,8.10
2022-11-08T22:25:44.958Z,8.00
2022-11-08T22:27:46.687Z,7.90
2022-11-08T22:29:48.438Z,7.90
2022-11-08T22:31:50.278Z,7.80
2022-11-08T22:33:52.002Z,7.80
2022-11-08T22:35:53.901Z,8.00
2022-11-08T22:37:55.652Z,7.80
2022-11-08T22:39:57.452Z,7.70
2022-11-08T22:41:59.306Z,7.70
2022-11-08T22:44:01.224Z,7.70
2022-11-08T22:46:03.489Z,7.60
2022-11-08T22:48:05.698Z,7.60
2022-11-08T22:50:07.664Z,7.60
2022-11-08T22:52:09.396Z,7.50
2022-11-08T22:54:11.314Z,7.50
2022-11-08T22:56:13.036Z,7.50
2022-11-08T22:58:14.806Z,7.50
2022-11-08T23:00:16.692Z,7.40
2022-11-08T23:02:18.452Z,7.40
2022-11-08T23:04:20.534Z,7.40
2022-11-08T23:06:22.247Z,7.40
2022-11-08T23:08:26.097Z,7.30
2022-11-08T23:10:27.863Z,7.30
2022-11-08T23:12:48.401Z,7.30
2022-11-08T23:15:09.065Z,7.30
2022-11-08T23:17:10.810Z,7.20
2022-11-08T23:19:36.659Z,7.20
2022-11-08T23:21:57.073Z,7.20
2022-11-08T23:24:17.317Z,7.10
2022-11-08T23:26:38.987Z,7.10
2022-11-08T23:28:59.203Z,7.10
2022-11-08T23:31:22.716Z,7.10
2022-11-08T23:33:24.426Z,7.00
2022-11-08T23:35:26.317Z,7.00
2022-11-08T23:37:28.243Z,7.00
2022-11-08T23:39:29.989Z,6.90
2022-11-08T23:41:50.468Z,6.90
2022-11-08T23:44:10.937Z,6.90
2022-11-08T23:46:12.907Z,6.90
2022-11-08T23:48:14.622Z,6.90
2022-11-08T23:50:16.379Z,6.90
2022-11-08T23:52:18.100Z,6.80
2022-11-08T23:54:19.921Z,6.90
2022-11-08T23:56:26.593Z,6.80
2022-11-08T23:58:28.376Z,6.90
